Time;durP1;ratioP1;P1;durP2;ratioP2;P2;SDS_P1;SDS_P2;PMS_P1;PMS_P2;Temp;Humidity;BMP_temperature;BMP_pressure;BME280_temperature;BME280_humidity;BME280_pressure;Samples;Min_cycle;Max_cycle;Signal;HPM_P1;HPM_P2
2021/04/05 00:02:05;;;;;;;23.67;10.15;;;6.30;99.90;;;;;;5034190;28;20033;-69
2021/04/05 00:04:31;;;;;;;32.70;12.00;;;6.30;99.90;;;;;;5035714;28;20132;-68
2021/04/05 00:06:58;;;;;;;30.77;12.02;;;6.30;99.90;;;;;;5035335;28;20131;-69
2021/04/05 00:09:24;;;;;;;29.63;11.30;;;6.30;99.90;;;;;;5035521;28;20033;-69
2021/04/05 00:11:50;;;;;;;38.05;12.05;;;6.30;99.90;;;;;;5035426;28;20021;-69
2021/04/05 00:14:16;;;;;;;28.13;11.30;;;6.30;99.90;;;;;;5033791;28;20045;-68
2021/04/05 00:16:41;;;;;;;37.40;11.68;;;6.30;99.90;;;;;;5032721;28;20049;-70
2021/04/05 00:19:08;;;;;;;36.58;12.48;;;6.40;99.90;;;;;;5033921;28;20449;-69
2021/04/05 00:21:33;;;;;;;28.33;10.68;;;6.40;99.90;;;;;;5034873;28;20075;-70
2021/04/05 00:23:59;;;;;;;38.38;13.07;;;6.40;99.90;;;;;;5034737;28;20466;-69
2021/04/05 00:26:24;;;;;;;32.50;11.93;;;6.40;99.90;;;;;;5034291;28;20091;-70
2021/04/05 00:28:50;;;;;;;30.15;11.85;;;6.50;99.90;;;;;;5035058;28;20033;-69
2021/04/05 00:31:16;;;;;;;29.73;12.60;;;6.50;99.90;;;;;;5034577;28;20033;-69
2021/04/05 00:33:42;;;;;;;32.53;12.50;;;6.50;99.90;;;;;;5034135;28;20110;-69
2021/04/05 00:36:08;;;;;;;33.95;12.07;;;6.50;99.90;;;;;;5033071;28;20562;-69
2021/04/05 00:38:34;;;;;;;31.13;11.88;;;6.50;99.90;;;;;;5022842;28;20066;-70
2021/04/05 00:41:12;;;;;;;32.70;11.15;;;6.50;99.90;;;;;;5022744;28;20118;-70
2021/04/05 00:43:40;;;;;;;42.22;13.55;;;6.50;99.90;;;;;;5016265;28;20041;-69
2021/04/05 00:46:09;;;;;;;31.90;12.20;;;6.50;99.90;;;;;;5032877;28;20018;-69
2021/04/05 00:48:35;;;;;;;33.17;13.55;;;6.40;99.90;;;;;;5030973;28;20026;-69
2021/04/05 00:51:13;;;;;;;34.22;12.82;;;6.40;99.90;;;;;;5033028;28;20173;-72
2021/04/05 00:53:42;;;;;;;34.33;13.27;;;6.40;99.90;;;;;;5015135;28;20026;-69
2021/04/05 00:56:09;;;;;;;41.00;12.50;;;6.40;99.90;;;;;;5030514;28;20382;-70
2021/04/05 00:58:35;;;;;;;34.17;12.93;;;6.40;99.90;;;;;;5020747;28;20034;-69
2021/04/05 01:01:05;;;;;;;31.75;12.63;;;6.50;99.90;;;;;;5017202;28;20033;-71
2021/04/05 01:03:34;;;;;;;29.48;12.73;;;6.50;99.90;;;;;;5038453;28;20037;-70
2021/04/05 01:06:11;;;;;;;36.60;12.18;;;6.50;99.90;;;;;;5031173;28;20427;-69
2021/04/05 01:08:37;;;;;;;38.60;12.50;;;6.70;99.90;;;;;;5032666;28;20034;-69
2021/04/05 01:11:04;;;;;;;38.50;13.02;;;6.80;99.90;;;;;;5033361;28;20117;-70
2021/04/05 01:13:30;;;;;;;38.80;9.57;;;6.80;99.90;;;;;;5033240;28;20017;-69
2021/04/05 01:15:56;;;;;;;33.67;12.07;;;6.80;99.90;;;;;;5029456;28;20029;-69
2021/04/05 01:18:21;;;;;;;38.70;12.85;;;6.90;99.90;;;;;;5029353;28;20029;-70
2021/04/05 01:20:49;;;;;;;40.53;13.35;;;7.00;99.90;;;;;;5024625;28;20100;-69
2021/04/05 01:23:16;;;;;;;35.95;11.50;;;7.10;99.90;;;;;;5033111;28;20488;-70
2021/04/05 01:25:43;;;;;;;31.35;12.50;;;7.00;99.90;;;;;;5030713;28;20030;-69
2021/04/05 01:28:09;;;;;;;33.92;12.13;;;7.00;99.90;;;;;;5030754;28;20555;-69
2021/04/05 01:30:37;;;;;;;33.38;13.63;;;7.10;99.90;;;;;;5029382;28;20034;-69
2021/04/05 01:33:14;;;;;;;40.10;13.57;;;7.20;99.90;;;;;;5014525;28;20033;-70
2021/04/05 01:36:01;;;;;;;42.93;11.57;;;7.20;99.90;;;;;;5024131;28;20604;-70
2021/04/05 01:38:29;;;;;;;34.67;12.60;;;7.30;99.90;;;;;;5028754;28;20292;-69
2021/04/05 01:40:54;;;;;;;;;;;7.40;99.90;;;;;;5034257;28;20068;-69
2021/04/05 01:43:21;;;;;;;29.00;11.73;;;7.40;99.90;;;;;;5032675;28;20364;-70
2021/04/05 01:45:46;;;;;;;37.20;10.27;;;7.40;99.90;;;;;;5033599;28;20103;-71
2021/04/05 01:48:16;;;;;;;44.00;10.57;;;7.40;99.90;;;;;;5014479;28;20109;-69
2021/04/05 01:50:42;;;;;;;43.28;10.35;;;7.50;99.90;;;;;;5015161;28;20038;-68
2021/04/05 01:53:09;;;;;;;36.63;11.40;;;7.50;99.90;;;;;;5032193;28;20022;-70
2021/04/05 01:55:36;;;;;;;36.58;9.65;;;7.70;99.90;;;;;;5032648;28;20025;-70
2021/04/05 01:58:05;;;;;;;31.63;8.93;;;7.80;99.90;;;;;;5033258;28;20044;-70
2021/04/05 02:00:35;;;;;;;30.88;8.68;;;7.90;99.90;;;;;;5032143;28;20025;-71
2021/04/05 02:03:09;;;;;;;40.13;7.95;;;7.90;99.90;;;;;;5013876;28;20119;-71
2021/04/05 02:05:48;;;;;;;30.10;9.70;;;8.00;99.90;;;;;;5012588;28;20021;-70
2021/04/05 02:08:25;;;;;;;29.63;7.85;;;8.00;99.90;;;;;;5047793;28;20179;-71
2021/04/05 02:10:52;;;;;;;29.02;7.15;;;8.10;99.90;;;;;;5026537;28;20034;-70
2021/04/05 02:13:23;;;;;;;22.92;7.13;;;8.10;99.90;;;;;;5027569;28;20449;-71
2021/04/05 02:15:52;;;;;;;17.27;7.15;;;8.10;99.90;;;;;;5030275;28;20023;-71
2021/04/05 02:18:24;;;;;;;26.95;6.82;;;8.20;99.90;;;;;;5013783;28;20057;-72
2021/04/05 02:20:50;;;;;;;16.27;5.35;;;8.20;99.90;;;;;;5016649;28;20029;-71
2021/04/05 02:23:17;;;;;;;25.27;7.00;;;8.20;99.90;;;;;;5021903;28;20030;-71
2021/04/05 02:26:07;;;;;;;14.27;6.35;;;8.30;99.90;;;;;;5026332;28;20037;-71
2021/04/05 02:28:44;;;;;;;20.73;5.75;;;8.30;99.90;;;;;;5019680;28;20025;-71
2021/04/05 02:31:11;;;;;;;18.05;6.43;;;8.40;99.90;;;;;;5031686;28;20014;-71
2021/04/05 02:33:48;;;;;;;20.30;6.57;;;8.30;99.90;;;;;;5032280;28;20033;-71
2021/04/05 02:36:19;;;;;;;14.65;6.05;;;8.40;99.90;;;;;;5023383;28;20410;-72
2021/04/05 02:38:47;;;;;;;20.42;6.63;;;8.40;99.90;;;;;;5027825;28;20021;-71
2021/04/05 02:41:14;;;;;;;15.50;5.20;;;8.50;99.90;;;;;;5031288;28;20394;-70
2021/04/05 02:43:41;;;;;;;27.05;8.10;;;8.50;99.90;;;;;;5022563;28;20486;-71
2021/04/05 02:46:13;;;;;;;19.45;7.80;;;8.50;99.90;;;;;;5031705;28;20021;-70
2021/04/05 02:48:42;;;;;;;21.13;6.15;;;8.50;99.90;;;;;;5012702;28;20033;-70
2021/04/05 02:51:09;;;;;;;16.98;5.97;;;8.50;99.90;;;;;;5023083;28;20026;-71
2021/04/05 02:53:43;;;;;;;19.98;6.75;;;8.60;99.90;;;;;;5035232;28;20490;-70
2021/04/05 02:56:10;;;;;;;18.13;5.65;;;8.60;99.90;;;;;;5028138;28;20026;-70
2021/04/05 02:58:41;;;;;;;17.27;5.72;;;8.60;99.90;;;;;;5022691;28;20483;-70
2021/04/05 03:01:11;;;;;;;14.93;5.40;;;8.60;99.90;;;;;;5021909;28;20072;-71
2021/04/05 03:03:38;;;;;;;19.42;5.65;;;8.70;99.90;;;;;;5019840;28;20037;-69
2021/04/05 03:06:06;;;;;;;29.05;6.60;;;8.80;99.90;;;;;;5036684;28;20478;-70
2021/04/05 03:08:33;;;;;;;20.13;6.30;;;8.80;99.90;;;;;;5020242;28;20038;-69
2021/04/05 03:10:59;;;;;;;16.33;6.55;;;8.80;99.90;;;;;;5017062;28;20109;-71
2021/04/05 03:13:26;;;;;;;19.52;6.32;;;8.80;99.90;;;;;;5016957;28;20056;-71
2021/04/05 03:15:54;;;;;;;14.82;6.10;;;8.80;99.90;;;;;;5021871;28;20152;-70
2021/04/05 03:18:21;;;;;;;15.13;5.95;;;8.80;99.90;;;;;;5032528;28;20497;-71
2021/04/05 03:20:48;;;;;;;21.67;6.43;;;8.80;99.90;;;;;;5034946;28;20021;-70
2021/04/05 03:23:21;;;;;;;19.20;6.53;;;8.80;99.90;;;;;;5035826;28;20021;-70
2021/04/05 03:25:46;;;;;;;12.32;5.90;;;8.80;99.90;;;;;;5035271;28;20025;-70
2021/04/05 03:28:12;;;;;;;20.48;6.13;;;8.90;99.90;;;;;;5024216;28;20029;-70
2021/04/05 03:30:45;;;;;;;16.70;5.95;;;8.90;99.90;;;;;;5015282;28;20026;-70
2021/04/05 03:33:36;;;;;;;22.52;6.45;;;8.90;99.90;;;;;;5022462;28;20116;-70
2021/04/05 03:36:08;;;;;;;17.70;5.72;;;9.00;99.90;;;;;;5050440;28;20112;-70
2021/04/05 03:38:37;;;;;;;15.98;6.53;;;9.00;99.90;;;;;;5036318;28;20036;-70
2021/04/05 03:41:08;;;;;;;24.92;6.85;;;9.00;99.90;;;;;;5036281;28;20063;-71
2021/04/05 03:43:53;;;;;;;23.15;7.20;;;9.00;99.90;;;;;;5034261;28;20481;-70
2021/04/05 03:46:26;;;;;;;19.67;7.35;;;9.00;99.90;;;;;;5035796;28;20590;-73
2021/04/05 03:49:01;;;;;;;19.23;6.55;;;8.90;99.90;;;;;;5031114;28;20029;-70
2021/04/05 03:51:40;;;;;;;25.80;7.45;;;8.90;99.90;;;;;;5033219;28;20026;-71
2021/04/05 03:54:08;;;;;;;13.65;6.50;;;8.90;99.90;;;;;;5022758;28;20025;-71
2021/04/05 03:56:41;;;;;;;21.15;6.30;;;9.00;99.90;;;;;;5029628;28;20025;-69
2021/04/05 03:59:14;;;;;;;17.98;6.18;;;9.00;99.90;;;;;;5026356;28;20026;-68
2021/04/05 04:01:48;;;;;;;20.50;7.57;;;9.00;99.90;;;;;;5017571;28;20496;-69
2021/04/05 04:04:22;;;;;;;16.75;6.07;;;8.90;99.90;;;;;;5015784;28;20122;-69
2021/04/05 04:07:15;;;;;;;15.25;6.20;;;8.90;99.90;;;;;;5015172;28;20095;-73
2021/04/05 04:09:42;;;;;;;18.02;7.50;;;8.90;99.90;;;;;;5034186;28;20363;-70
2021/04/05 04:12:13;;;;;;;20.27;6.65;;;8.80;99.90;;;;;;5034839;28;20115;-70
2021/04/05 04:14:40;;;;;;;19.42;7.75;;;8.90;99.90;;;;;;5033583;28;20026;-69
2021/04/05 04:17:08;;;;;;;22.35;6.65;;;8.90;99.90;;;;;;5019271;28;20014;-71
2021/04/05 04:19:36;;;;;;;25.27;6.22;;;8.90;99.90;;;;;;5015896;28;20026;-72
2021/04/05 04:22:03;;;;;;;18.42;6.57;;;8.90;99.90;;;;;;5029691;28;20026;-70
2021/04/05 04:24:29;;;;;;;14.82;6.25;;;8.90;99.90;;;;;;5016425;28;20037;-70
2021/04/05 04:26:55;;;;;;;12.45;5.55;;;8.90;99.90;;;;;;5015997;28;20026;-71
2021/04/05 04:29:22;;;;;;;22.33;7.25;;;8.90;99.90;;;;;;5031227;28;20030;-70
2021/04/05 04:31:48;;;;;;;15.90;6.30;;;9.00;99.90;;;;;;5019690;28;20029;-69
2021/04/05 04:34:18;;;;;;;23.35;6.93;;;9.00;99.90;;;;;;5029181;28;20049;-69
2021/04/05 04:36:46;;;;;;;17.42;6.50;;;8.90;99.90;;;;;;5021687;28;20474;-70
2021/04/05 04:39:13;;;;;;;11.75;6.13;;;8.90;99.90;;;;;;5023335;28;20479;-69
2021/04/05 04:41:41;;;;;;;16.57;5.87;;;8.90;99.90;;;;;;5028168;28;20131;-70
2021/04/05 04:44:08;;;;;;;20.90;6.63;;;8.80;99.90;;;;;;5029196;28;20026;-69
2021/04/05 04:46:34;;;;;;;21.90;5.90;;;8.80;99.90;;;;;;5015526;28;20029;-69
2021/04/05 04:49:05;;;;;;;12.88;5.35;;;8.80;99.90;;;;;;5030199;28;20029;-73
2021/04/05 04:51:32;;;;;;;14.75;6.35;;;8.90;99.90;;;;;;5041909;28;20041;-68
2021/04/05 04:54:00;;;;;;;17.67;6.65;;;9.00;99.90;;;;;;5029588;28;20041;-69
2021/04/05 04:56:27;;;;;;;18.42;6.40;;;9.00;99.90;;;;;;5015002;28;20022;-70
2021/04/05 04:59:01;;;;;;;16.23;5.30;;;8.90;99.90;;;;;;5022727;28;20425;-71
2021/04/05 05:01:29;;;;;;;20.23;7.13;;;8.90;99.90;;;;;;5032212;28;20029;-70
2021/04/05 05:03:56;;;;;;;;;;;8.90;99.90;;;;;;5031786;28;20030;-70
2021/04/05 05:06:24;;;;;;;17.23;5.70;;;8.90;99.90;;;;;;5028337;28;19917;-70
2021/04/05 05:08:50;;;;;;;18.08;5.07;;;8.90;99.90;;;;;;5033086;28;20034;-71
2021/04/05 05:11:16;;;;;;;10.18;2.33;;;8.70;99.90;;;;;;5032671;28;20063;-70
2021/04/05 05:13:42;;;;;;;5.53;1.60;;;8.30;99.90;;;;;;5015956;28;20033;-70
2021/04/05 05:16:12;;;;;;;5.43;1.17;;;7.60;99.90;;;;;;5013002;28;20045;-69
2021/04/05 05:18:39;;;;;;;5.05;0.88;;;7.10;99.90;;;;;;5016449;28;20399;-71
2021/04/05 05:21:15;;;;;;;8.93;1.27;;;6.70;99.90;;;;;;5030086;28;20025;-71
2021/04/05 05:23:41;;;;;;;8.43;0.98;;;6.40;99.90;;;;;;5023663;28;20498;-70
2021/04/05 05:26:10;;;;;;;8.23;1.00;;;6.20;99.90;;;;;;5016169;28;20025;-72
2021/04/05 05:28:37;;;;;;;8.48;1.05;;;6.10;99.90;;;;;;5018872;28;20036;-70
2021/04/05 05:31:03;;;;;;;7.55;1.13;;;6.00;99.90;;;;;;5027252;28;20022;-69
2021/04/05 05:33:29;;;;;;;5.45;1.45;;;5.90;99.90;;;;;;5019681;28;20021;-69
2021/04/05 05:35:56;;;;;;;16.63;2.08;;;5.80;99.90;;;;;;5033952;28;20026;-69
2021/04/05 05:38:23;;;;;;;4.30;1.40;;;5.90;99.90;;;;;;5032894;28;20094;-69
2021/04/05 05:40:51;;;;;;;14.90;2.03;;;5.80;99.90;;;;;;5018994;28;20429;-70
2021/04/05 05:43:38;;;;;;;6.70;1.42;;;5.80;99.90;;;;;;5025682;28;20363;-69
2021/04/05 05:46:21;;;;;;;6.30;2.03;;;5.80;99.90;;;;;;5013418;28;20033;-69
2021/04/05 05:49:02;;;;;;;11.68;1.42;;;5.70;99.90;;;;;;5018220;28;20068;-70
2021/04/05 05:51:39;;;;;;;5.60;1.00;;;5.70;99.90;;;;;;5026708;28;20128;-69
2021/04/05 05:54:24;;;;;;;3.83;1.52;;;5.70;99.90;;;;;;5028930;28;20018;-70
2021/04/05 05:57:14;;;;;;;8.43;1.38;;;5.70;99.90;;;;;;5025852;28;20022;-70
2021/04/05 05:59:40;;;;;;;14.70;1.48;;;5.70;99.90;;;;;;5039969;28;20057;-70
2021/04/05 06:02:19;;;;;;;9.45;1.60;;;5.80;99.90;;;;;;5023506;28;20029;-70
2021/04/05 06:04:48;;;;;;;5.13;1.05;;;5.80;99.90;;;;;;5024527;28;20029;-69
2021/04/05 06:07:51;;;;;;;13.07;1.58;;;5.80;99.90;;;;;;5028646;28;20042;-69
2021/04/05 06:10:44;;;;;;;9.32;1.42;;;5.90;99.90;;;;;;5015093;28;20380;-70
2021/04/05 06:13:31;;;;;;;8.70;2.53;;;5.90;99.90;;;;;;5031911;28;20033;-70
2021/04/05 06:16:31;;;;;;;8.88;1.58;;;5.70;99.90;;;;;;5023792;28;20045;-70
2021/04/05 06:19:00;;;;;;;8.50;1.58;;;5.60;99.90;;;;;;5011677;28;20038;-70
2021/04/05 06:21:38;;;;;;;;;;;5.50;99.90;;;;;;5035215;28;20025;-70
2021/04/05 06:24:15;;;;;;;2.92;0.88;;;5.40;99.90;;;;;;5013297;28;19941;-71
2021/04/05 06:26:55;;;;;;;14.60;1.80;;;5.40;99.90;;;;;;5028458;28;20038;-71
2021/04/05 06:29:40;;;;;;;13.95;1.65;;;5.40;99.90;;;;;;5018079;28;20037;-69
2021/04/05 06:32:43;;;;;;;11.70;1.38;;;5.30;99.90;;;;;;5013582;28;20029;-70
2021/04/05 06:35:34;;;;;;;13.43;1.35;;;5.30;99.90;;;;;;5026455;28;20034;-71
2021/04/05 06:38:34;;;;;;;3.38;1.55;;;5.20;99.90;;;;;;5013740;28;20034;-71
2021/04/05 06:41:25;;;;;;;3.20;0.32;;;5.10;99.90;;;;;;5014588;28;20038;-70
2021/04/05 06:44:39;;;;;;;6.15;0.65;;;4.70;99.90;;;;;;5044504;28;20029;-70
2021/04/05 06:47:29;;;;;;;4.35;0.60;;;4.60;99.90;;;;;;5015351;28;20117;-69
2021/04/05 06:50:12;;;;;;;7.18;0.63;;;4.50;99.90;;;;;;5022245;28;20112;-69
2021/04/05 06:53:03;;;;;;;8.80;1.80;;;4.60;99.90;;;;;;5015621;28;20037;-71
2021/04/05 06:55:52;;;;;;;8.55;1.55;;;4.50;99.90;;;;;;5032577;28;20425;-70
2021/04/05 06:58:27;;;;;;;7.60;1.15;;;4.60;99.90;;;;;;5021610;28;20112;-70
2021/04/05 07:01:08;;;;;;;6.97;2.05;;;4.50;99.90;;;;;;5030888;28;20046;-71
2021/04/05 07:04:16;;;;;;;14.52;1.52;;;4.50;99.90;;;;;;5027756;28;20397;-70
2021/04/05 07:06:50;;;;;;;13.13;1.75;;;4.40;99.90;;;;;;5025837;28;20084;-70
2021/04/05 07:09:44;;;;;;;7.25;1.50;;;4.40;99.90;;;;;;5013690;28;20026;-70
2021/04/05 07:12:24;;;;;;;10.50;1.95;;;4.40;99.90;;;;;;5013755;28;20046;-70
2021/04/05 07:14:57;;;;;;;19.17;2.08;;;4.50;99.90;;;;;;5013784;28;20033;-71
2021/04/05 07:17:27;;;;;;;18.17;3.17;;;4.30;99.90;;;;;;5033441;28;20050;-70
2021/04/05 07:20:20;;;;;;;27.13;4.65;;;4.30;99.90;;;;;;5030823;28;20034;-70
2021/04/05 07:23:10;;;;;;;14.85;3.22;;;4.30;99.90;;;;;;5013081;28;20034;-70
2021/04/05 07:25:43;;;;;;;15.50;2.42;;;4.40;99.90;;;;;;5029784;28;20033;-69
2021/04/05 07:28:37;;;;;;;21.65;2.25;;;4.40;99.90;;;;;;5027821;28;20042;-70
2021/04/05 07:31:21;;;;;;;20.08;3.05;;;4.30;99.90;;;;;;5022999;28;20113;-70
2021/04/05 07:33:50;;;;;;;14.65;2.45;;;4.10;99.90;;;;;;5015102;28;20181;-71
2021/04/05 07:36:41;;;;;;;21.02;3.05;;;4.10;99.90;;;;;;5013399;28;20080;-70
2021/04/05 07:39:10;;;;;;;21.55;2.53;;;4.00;99.90;;;;;;5019662;28;20488;-71
2021/04/05 07:41:51;;;;;;;22.00;5.63;;;4.00;99.90;;;;;;5037878;28;20504;-70
2021/04/05 07:44:41;;;;;;;14.88;2.25;;;4.00;99.90;;;;;;5018173;28;20026;-71
2021/04/05 07:47:19;;;;;;;18.33;2.00;;;4.10;99.90;;;;;;5033392;28;20080;-73
2021/04/05 07:49:48;;;;;;;23.60;3.88;;;4.10;99.90;;;;;;5031889;28;20038;-70
2021/04/05 07:52:38;;;;;;;21.77;2.38;;;4.10;99.90;;;;;;5030840;28;20013;-72
2021/04/05 07:55:04;;;;;;;20.67;2.25;;;4.10;99.90;;;;;;5033528;28;20051;-72
2021/04/05 07:58:00;;;;;;;14.85;1.90;;;4.10;99.90;;;;;;5032464;28;20022;-70
2021/04/05 08:00:48;;;;;;;11.00;2.28;;;4.30;99.90;;;;;;5001491;28;20041;-70
2021/04/05 08:03:41;;;;;;;18.02;2.42;;;4.50;99.90;;;;;;5044830;28;20037;-70
2021/04/05 08:06:12;;;;;;;10.05;1.50;;;4.60;99.90;;;;;;5035686;28;20117;-70
2021/04/05 08:09:04;;;;;;;11.43;1.33;;;4.60;99.90;;;;;;5035739;28;20057;-70
2021/04/05 08:11:48;;;;;;;6.35;1.25;;;4.50;99.90;;;;;;5034815;28;20033;-70
2021/04/05 08:14:17;;;;;;;7.07;0.93;;;4.50;99.90;;;;;;5033882;28;20036;-70
2021/04/05 08:17:14;;;;;;;;;;;4.50;99.90;;;;;;5036041;28;20172;-71
2021/04/05 08:20:17;;;;;;;4.88;0.90;;;4.50;99.90;;;;;;5023406;28;19909;-70
2021/04/05 08:23:03;;;;;;;4.57;0.85;;;4.50;99.90;;;;;;5033979;28;20046;-70
2021/04/05 08:25:54;;;;;;;2.97;0.77;;;4.70;99.90;;;;;;5035539;28;20478;-70
2021/04/05 08:28:41;;;;;;;3.38;0.75;;;4.80;99.90;;;;;;5035498;28;20034;-72
2021/04/05 08:31:28;;;;;;;3.75;0.77;;;4.90;99.90;;;;;;5035080;28;20033;-71
2021/04/05 08:34:13;;;;;;;11.48;1.35;;;5.00;99.90;;;;;;5033611;28;20025;-70
2021/04/05 08:36:50;;;;;;;5.72;1.10;;;5.00;99.90;;;;;;5034306;28;20021;-70
2021/04/05 08:39:37;;;;;;;3.63;0.80;;;4.90;99.90;;;;;;5025311;28;20038;-71
2021/04/05 08:42:19;;;;;;;4.47;1.00;;;4.70;99.90;;;;;;5033744;28;20107;-72
2021/04/05 08:44:50;;;;;;;8.57;3.10;;;4.80;99.90;;;;;;5015292;28;20368;-71
2021/04/05 08:47:22;;;;;;;6.25;1.00;;;4.70;99.90;;;;;;5015241;28;20021;-71
2021/04/05 08:49:48;;;;;;;1.10;0.57;;;4.70;99.90;;;;;;5023890;28;20036;-71
2021/04/05 08:52:20;;;;;;;2.00;0.40;;;4.80;99.90;;;;;;5034919;28;20025;-71
2021/04/05 08:54:48;;;;;;;5.68;0.50;;;4.90;99.90;;;;;;5034540;28;20025;-72
2021/04/05 08:57:37;;;;;;;3.35;1.15;;;4.80;99.90;;;;;;5033483;28;20021;-74
2021/04/05 09:00:10;;;;;;;1.55;0.40;;;4.60;99.90;;;;;;5033298;28;20040;-72
2021/04/05 09:02:55;;;;;;;2.55;0.32;;;4.30;99.90;;;;;;5033598;28;20516;-72
2021/04/05 09:05:22;;;;;;;1.17;0.32;;;4.00;99.90;;;;;;5034728;28;20037;-72
2021/04/05 09:08:04;;;;;;;2.13;0.40;;;3.90;99.90;;;;;;5034049;28;20053;-71
2021/04/05 09:10:31;;;;;;;4.20;0.85;;;4.00;99.90;;;;;;5028739;28;20494;-71
2021/04/05 09:12:58;;;;;;;4.65;0.57;;;4.00;99.90;;;;;;5030329;28;20486;-72
2021/04/05 09:15:27;;;;;;;3.67;0.83;;;4.10;99.90;;;;;;5032188;28;20028;-71
2021/04/05 09:18:25;;;;;;;3.25;0.40;;;4.20;99.90;;;;;;5031552;28;20488;-71
2021/04/05 09:21:16;;;;;;;3.78;0.68;;;4.50;99.90;;;;;;5032600;28;20076;-72
2021/04/05 09:24:09;;;;;;;2.72;0.52;;;4.40;99.90;;;;;;5024487;28;20481;-71
2021/04/05 09:27:07;;;;;;;12.60;1.70;;;4.60;99.90;;;;;;5034067;28;20108;-71
2021/04/05 09:29:40;;;;;;;6.82;1.20;;;4.60;99.90;;;;;;5032093;28;20516;-72
2021/04/05 09:32:12;;;;;;;8.55;0.70;;;4.80;99.90;;;;;;5034263;28;20026;-70
2021/04/05 09:35:06;;;;;;;3.78;1.13;;;4.70;99.90;;;;;;5033030;28;20065;-70
2021/04/05 09:37:55;;;;;;;9.25;1.20;;;4.80;99.90;;;;;;5012100;28;20314;-71
2021/04/05 09:40:29;;;;;;;3.88;1.17;;;5.00;99.90;;;;;;5031289;28;20053;-71
2021/04/05 09:43:13;;;;;;;9.68;1.67;;;5.20;99.90;;;;;;5032864;28;20108;-72
2021/04/05 09:45:55;;;;;;;6.22;1.40;;;5.20;99.90;;;;;;5032507;28;20095;-71
2021/04/05 09:48:42;;;;;;;4.50;1.23;;;5.20;99.90;;;;;;5032494;28;20088;-73
2021/04/05 09:51:19;;;;;;;9.17;2.50;;;5.10;99.90;;;;;;5026955;28;20033;-70
2021/04/05 09:54:02;;;;;;;5.85;1.08;;;5.10;99.90;;;;;;5031476;28;20492;-70
2021/04/05 09:56:35;;;;;;;11.80;1.33;;;5.20;99.90;;;;;;5029693;28;20075;-70
2021/04/05 09:59:10;;;;;;;10.63;1.67;;;5.10;99.90;;;;;;5032057;28;20049;-70
2021/04/05 10:01:37;;;;;;;7.43;1.30;;;4.90;99.90;;;;;;5029854;28;20025;-72
2021/04/05 10:04:10;;;;;;;8.10;1.40;;;4.80;99.90;;;;;;5028001;28;20377;-71
2021/04/05 10:06:38;;;;;;;8.45;1.73;;;4.40;99.90;;;;;;5025311;28;20504;-71
2021/04/05 10:09:06;;;;;;;3.40;1.20;;;4.20;99.90;;;;;;5025624;28;20120;-71
2021/04/05 10:11:34;;;;;;;9.70;1.42;;;4.00;99.90;;;;;;5024396;28;20029;-72
2021/04/05 10:14:04;;;;;;;4.70;1.30;;;4.00;99.90;;;;;;5027169;28;20029;-72
2021/04/05 10:16:32;;;;;;;6.20;0.82;;;3.80;99.90;;;;;;5033385;28;20053;-72
2021/04/05 10:19:09;;;;;;;5.03;1.98;;;4.00;99.90;;;;;;5033323;28;20033;-72
2021/04/05 10:21:41;;;;;;;1.73;0.63;;;4.20;99.90;;;;;;5031697;28;20044;-71
2021/04/05 10:24:08;;;;;;;6.18;1.20;;;4.30;99.90;;;;;;5033081;28;20283;-73
2021/04/05 10:26:35;;;;;;;7.68;1.38;;;4.50;99.90;;;;;;5033182;28;20029;-71
2021/04/05 10:29:07;;;;;;;4.25;1.15;;;4.60;99.90;;;;;;5033781;28;20036;-72
2021/04/05 10:31:33;;;;;;;7.00;1.48;;;4.80;99.90;;;;;;5031379;28;20076;-71
2021/04/05 10:34:10;;;;;;;10.90;1.88;;;5.20;99.90;;;;;;5030645;28;20010;-73
2021/04/05 10:36:45;;;;;;;12.00;1.55;;;5.30;99.90;;;;;;5032113;28;20576;-72
2021/04/05 10:39:11;;;;;;;6.50;1.75;;;4.90;99.90;;;;;;5032915;28;20026;-72
2021/04/05 10:42:02;;;;;;;6.72;1.10;;;4.50;99.90;;;;;;5032925;28;20025;-71
2021/04/05 10:44:33;;;;;;;9.05;0.95;;;4.70;99.90;;;;;;5025747;28;20569;-72
2021/04/05 10:47:07;;;;;;;5.80;0.95;;;5.10;98.90;;;;;;5033866;28;20029;-72
2021/04/05 10:49:34;;;;;;;4.68;1.25;;;5.30;96.20;;;;;;5030107;28;20033;-71
2021/04/05 10:52:19;;;;;;;3.90;0.90;;;5.10;95.60;;;;;;5026660;28;20020;-71
2021/04/05 10:54:49;;;;;;;1.13;0.50;;;5.10;97.80;;;;;;5036759;28;20025;-72
2021/04/05 10:57:34;;;;;;;2.47;0.85;;;5.00;95.70;;;;;;5015303;28;20018;-70
2021/04/05 11:00:07;;;;;;;8.50;0.80;;;5.10;96.60;;;;;;5030385;28;20505;-70
2021/04/05 11:02:36;;;;;;;2.60;1.00;;;5.30;97.70;;;;;;5031598;28;20382;-70
2021/04/05 11:05:15;;;;;;;9.25;1.40;;;5.60;98.40;;;;;;5029235;28;20060;-72
2021/04/05 11:07:44;;;;;;;3.33;0.65;;;5.70;98.10;;;;;;5015611;28;20140;-71
2021/04/05 11:10:18;;;;;;;4.25;1.10;;;5.80;98.30;;;;;;5029562;28;20030;-73
2021/04/05 11:12:48;;;;;;;8.65;1.60;;;5.70;98.60;;;;;;5035988;28;20424;-71
2021/04/05 11:15:18;;;;;;;4.13;1.00;;;5.80;98.80;;;;;;5034441;28;20033;-71
2021/04/05 11:17:47;;;;;;;9.18;1.25;;;6.00;96.70;;;;;;5035793;28;20030;-71
2021/04/05 11:20:16;;;;;;;7.75;1.08;;;6.00;95.60;;;;;;5034708;28;20022;-72
2021/04/05 11:22:43;;;;;;;4.47;0.73;;;6.10;95.60;;;;;;5034583;28;20157;-72
2021/04/05 11:25:36;;;;;;;4.18;1.40;;;6.20;95.80;;;;;;5036384;28;20398;-71
2021/04/05 11:28:29;;;;;;;8.57;1.10;;;6.30;95.70;;;;;;5031894;28;20064;-70
2021/04/05 11:31:15;;;;;;;7.35;1.02;;;5.70;97.50;;;;;;5034615;28;20036;-70
2021/04/05 11:33:54;;;;;;;3.72;1.00;;;5.10;99.90;;;;;;5033311;28;20025;-70
2021/04/05 11:36:21;;;;;;;5.88;0.88;;;4.50;99.90;;;;;;5032619;28;20032;-72
2021/04/05 11:38:49;;;;;;;5.80;0.63;;;4.00;99.90;;;;;;5034829;28;20029;-73
2021/04/05 11:41:18;;;;;;;4.85;0.73;;;3.60;99.90;;;;;;5035408;28;20393;-72
2021/04/05 11:43:52;;;;;;;2.03;0.63;;;3.40;99.90;;;;;;5032971;28;20087;-70
2021/04/05 11:46:20;;;;;;;2.75;0.70;;;3.40;99.90;;;;;;5032971;28;20083;-71
2021/04/05 11:49:01;;;;;;;1.88;0.35;;;3.80;99.90;;;;;;5029738;28;20041;-71
2021/04/05 11:51:32;;;;;;;5.28;0.75;;;4.20;99.90;;;;;;5033075;28;20219;-74
2021/04/05 11:54:01;;;;;;;4.43;1.48;;;4.60;99.90;;;;;;5028049;28;20178;-72
2021/04/05 11:56:29;;;;;;;10.40;0.93;;;5.00;99.90;;;;;;5027734;28;20034;-72
2021/04/05 11:59:14;;;;;;;;;;;5.00;99.90;;;;;;5028098;28;20049;-74
2021/04/05 12:01:51;;;;;;;8.93;1.88;;;4.80;99.90;;;;;;5028307;28;19913;-71
2021/04/05 12:04:26;;;;;;;7.50;1.20;;;4.80;99.90;;;;;;5029445;28;21057;-73
2021/04/05 12:07:04;;;;;;;8.98;1.40;;;4.40;99.90;;;;;;5028284;28;20459;-71
2021/04/05 12:09:37;;;;;;;7.13;0.55;;;4.20;99.90;;;;;;5027106;28;20124;-73
2021/04/05 12:12:07;;;;;;;4.93;0.60;;;3.70;99.90;;;;;;5028831;28;20108;-73
2021/04/05 12:14:35;;;;;;;4.82;0.32;;;3.10;99.90;;;;;;5028032;28;20021;-71
2021/04/05 12:17:01;;;;;;;;;;;3.10;99.90;;;;;;5031447;28;20025;-74
2021/04/05 12:19:34;;;;;;;1.80;0.45;;;3.30;99.90;;;;;;5034810;28;19920;-72
2021/04/05 12:22:02;;;;;;;0.57;0.35;;;3.60;99.90;;;;;;5031840;28;20049;-71
2021/04/05 12:24:31;;;;;;;1.48;0.47;;;4.00;99.90;;;;;;5030459;28;20052;-71
2021/04/05 12:27:00;;;;;;;6.63;0.93;;;4.40;99.90;;;;;;5031084;28;20512;-70
2021/04/05 12:29:28;;;;;;;1.27;0.60;;;4.80;99.90;;;;;;5034853;28;20041;-70
2021/04/05 12:31:55;;;;;;;2.28;0.80;;;5.10;99.90;;;;;;5033278;28;20137;-70
2021/04/05 12:34:27;;;;;;;4.22;0.80;;;5.20;99.90;;;;;;5035125;28;20029;-70
2021/04/05 12:36:54;;;;;;;5.72;0.90;;;5.30;99.90;;;;;;5034534;28;20048;-70
2021/04/05 12:39:26;;;;;;;10.13;0.88;;;5.50;99.90;;;;;;5033393;28;20527;-71
2021/04/05 12:41:53;;;;;;;1.92;0.80;;;5.70;99.90;;;;;;5025478;28;20030;-71
2021/04/05 12:44:30;;;;;;;5.93;1.00;;;5.80;99.90;;;;;;5028679;28;20399;-71
2021/04/05 12:47:00;;;;;;;5.10;1.73;;;5.60;99.90;;;;;;5025871;28;20032;-71
2021/04/05 12:49:28;;;;;;;3.35;0.52;;;5.20;99.90;;;;;;5027084;28;20030;-71
2021/04/05 12:51:56;;;;;;;4.80;0.60;;;4.90;99.90;;;;;;5026776;28;20100;-72
2021/04/05 12:54:25;;;;;;;4.70;0.73;;;4.90;99.90;;;;;;5024915;28;20030;-73
2021/04/05 12:56:53;;;;;;;3.58;0.70;;;5.00;99.90;;;;;;5042406;28;20029;-71
2021/04/05 12:59:22;;;;;;;;;;;5.30;99.90;;;;;;5026644;28;20034;-73
2021/04/05 13:01:54;;;;;;;5.13;0.95;;;5.50;99.90;;;;;;5026947;28;19909;-70
2021/04/05 13:04:22;;;;;;;4.25;0.57;;;5.40;99.90;;;;;;5043133;28;20049;-74
2021/04/05 13:07:08;;;;;;;;;;;5.10;99.90;;;;;;5043578;28;20049;-73
2021/04/05 13:09:56;;;;;;;4.82;0.95;;;5.40;99.90;;;;;;5025628;28;20320;-71
2021/04/05 13:12:34;;;;;;;8.45;2.03;;;5.80;99.90;;;;;;5026420;28;20033;-71
2021/04/05 13:15:08;;;;;;;4.35;0.80;;;6.10;99.90;;;;;;5032941;28;20505;-71
2021/04/05 13:17:38;;;;;;;13.18;1.10;;;6.20;99.90;;;;;;5034507;28;20021;-73
2021/04/05 13:20:06;;;;;;;8.70;0.88;;;6.40;99.90;;;;;;5028051;28;20075;-71
2021/04/05 13:22:35;;;;;;;4.75;0.60;;;6.10;99.10;;;;;;5026356;28;20051;-70
2021/04/05 13:25:29;;;;;;;12.52;0.60;;;5.70;98.00;;;;;;5024410;28;20028;-73
2021/04/05 13:27:58;;;;;;;4.40;0.95;;;5.30;99.70;;;;;;5023973;28;20135;-72
2021/04/05 13:30:32;;;;;;;8.00;0.60;;;4.80;99.90;;;;;;5024013;28;20072;-71